Time;durP1;ratioP1;P1;durP2;ratioP2;P2;SDS_P1;SDS_P2;PMS_P1;PMS_P2;Temp;Humidity;BMP_temperature;BMP_pressure;BME280_temperature;BME280_humidity;BME280_pressure;Samples;Min_cycle;Max_cycle;Signal;HPM_P1;HPM_P2
2024/04/23 00:01:10;;;;;;;8.23;6.13;;;;;;;6.28;59.16;100488.53;5025221;28;20015;-86
2024/04/23 00:03:37;;;;;;;9.48;6.97;;;;;;;6.29;59.54;100477.19;5025235;28;20064;-86
2024/04/23 00:06:04;;;;;;;7.95;6.30;;;;;;;6.29;59.49;100485.03;5052190;28;20011;-87
2024/04/23 00:08:30;;;;;;;8.95;6.82;;;;;;;6.29;59.57;100479.81;5024672;28;20015;-86
2024/04/23 00:10:57;;;;;;;9.25;6.55;;;;;;;6.31;59.70;100480.63;5024841;28;20022;-86
2024/04/23 00:13:24;;;;;;;7.55;6.40;;;;;;;6.34;59.85;100483.16;5052331;28;20031;-84
2024/04/23 00:15:50;;;;;;;9.07;6.93;;;;;;;6.36;59.98;100483.13;5052608;28;20007;-84
2024/04/23 00:18:17;;;;;;;7.93;6.32;;;;;;;6.38;60.02;100479.56;5052086;28;20374;-84
2024/04/23 00:20:44;;;;;;;8.63;6.05;;;;;;;6.39;59.86;100468.19;5024814;28;20011;-84
2024/04/23 00:23:12;;;;;;;9.05;6.40;;;;;;;6.40;59.71;100474.28;5051601;28;20443;-85
2024/04/23 00:25:39;;;;;;;10.10;6.32;;;;;;;6.41;59.72;100469.88;5052113;28;20003;-84
2024/04/23 00:28:06;;;;;;;8.65;6.15;;;;;;;6.41;59.63;100464.66;5024964;28;20008;-84
2024/04/23 00:30:33;;;;;;;7.63;6.50;;;;;;;6.39;59.68;100459.47;5051794;28;20371;-84
2024/04/23 00:32:59;;;;;;;7.78;6.38;;;;;;;6.37;59.56;100469.13;5024688;28;20648;-85
2024/04/23 00:35:26;;;;;;;7.28;6.07;;;;;;;6.37;59.55;100461.28;5050446;28;20397;-84
2024/04/23 00:37:53;;;;;;;9.80;6.47;;;;;;;6.34;59.69;100457.00;5051975;28;20044;-84
2024/04/23 00:40:19;;;;;;;7.53;6.18;;;;;;;6.34;59.58;100456.13;5024356;28;20012;-84
2024/04/23 00:42:46;;;;;;;9.88;6.38;;;;;;;6.31;59.64;100443.16;5049995;28;20007;-84
2024/04/23 00:45:15;;;;;;;8.00;6.75;;;;;;;6.29;59.36;100444.94;5024849;28;20026;-84
2024/04/23 00:47:42;;;;;;;8.35;6.55;;;;;;;6.25;59.66;100438.97;5024778;28;20491;-85
2024/04/23 00:50:09;;;;;;;7.72;6.35;;;;;;;6.23;59.83;100440.75;5024722;28;20031;-84
2024/04/23 00:52:37;;;;;;;9.25;6.53;;;;;;;6.19;59.70;100439.97;5024063;28;20069;-85
2024/04/23 00:55:04;;;;;;;8.90;7.00;;;;;;;6.14;59.86;100434.03;5024403;28;20003;-85
2024/04/23 00:57:31;;;;;;;8.10;6.40;;;;;;;6.11;59.67;100441.94;5024702;28;20026;-86
2024/04/23 00:59:58;;;;;;;9.73;7.20;;;;;;;6.07;60.21;100438.56;5024226;28;20007;-86
2024/04/23 01:02:25;;;;;;;9.20;6.70;;;;;;;6.04;60.01;100436.03;5051325;28;20026;-86
2024/04/23 01:04:52;;;;;;;9.93;6.20;;;;;;;6.03;60.18;100438.66;5024409;28;20897;-86
2024/04/23 01:07:18;;;;;;;10.05;7.15;;;;;;;5.98;60.31;100431.78;5051735;28;20460;-84
2024/04/23 01:09:45;;;;;;;10.35;7.43;;;;;;;5.97;60.40;100435.31;5051186;28;20007;-84
2024/04/23 01:12:12;;;;;;;12.52;6.97;;;;;;;5.95;60.21;100436.25;5024034;28;20015;-84
2024/04/23 01:14:41;;;;;;;8.65;6.65;;;;;;;5.93;60.27;100431.06;5051698;28;20030;-84
2024/04/23 01:17:09;;;;;;;11.55;7.47;;;;;;;5.93;60.29;100432.81;5024383;28;20007;-84
2024/04/23 01:19:44;;;;;;;9.70;6.70;;;;;;;5.89;59.98;100425.94;5051259;28;20007;-84
2024/04/23 01:22:22;;;;;;;9.38;6.90;;;;;;;5.86;59.94;100433.00;5051475;28;20007;-84
2024/04/23 01:24:59;;;;;;;8.65;6.85;;;;;;;5.85;59.99;100430.41;5024083;28;20097;-85
2024/04/23 01:27:27;;;;;;;12.38;6.72;;;;;;;5.86;60.16;100424.28;5024399;28;20019;-84
2024/04/23 01:29:56;;;;;;;12.48;7.28;;;;;;;5.82;60.32;100425.25;5051427;28;20355;-84
2024/04/23 01:32:25;;;;;;;8.75;6.82;;;;;;;5.80;60.10;100427.91;5024024;28;20042;-84
2024/04/23 01:34:53;;;;;;;10.63;7.00;;;;;;;5.77;60.14;100422.78;5024410;28;20010;-84
2024/04/23 01:37:23;;;;;;;10.65;7.20;;;;;;;5.74;60.45;100425.47;5024186;28;20014;-84
2024/04/23 01:39:50;;;;;;;10.77;6.95;;;;;;;5.70;60.71;100423.84;5051230;28;20011;-84
2024/04/23 01:42:18;;;;;;;10.52;7.18;;;;;;;5.67;60.65;100416.94;5023895;28;20003;-84
2024/04/23 01:44:45;;;;;;;11.38;7.70;;;;;;;5.67;60.53;100416.06;5051216;28;20011;-84
2024/04/23 01:47:11;;;;;;;11.85;7.70;;;;;;;5.66;60.72;100423.06;5024451;28;20018;-86
2024/04/23 01:49:39;;;;;;;11.20;7.22;;;;;;;5.66;60.71;100414.34;5051403;28;20015;-84
2024/04/23 01:52:07;;;;;;;7.72;6.78;;;;;;;5.66;60.68;100414.34;5050911;28;20499;-84
2024/04/23 01:54:35;;;;;;;7.93;6.80;;;;;;;5.65;60.77;100410.03;5024041;28;20011;-85
2024/04/23 01:57:05;;;;;;;9.80;7.20;;;;;;;5.64;60.83;100413.56;5051259;28;20008;-84
2024/04/23 01:59:33;;;;;;;9.50;6.95;;;;;;;5.64;60.43;100410.94;5051433;28;20015;-84
2024/04/23 02:02:01;;;;;;;10.90;7.28;;;;;;;5.61;60.78;100407.50;5050658;28;20440;-84
2024/04/23 02:04:29;;;;;;;8.65;7.05;;;;;;;5.61;60.93;100404.88;5023995;28;20030;-86
2024/04/23 02:06:56;;;;;;;13.43;7.88;;;;;;;5.58;60.60;100402.34;5023908;28;20540;-84
2024/04/23 02:09:23;;;;;;;10.02;7.03;;;;;;;5.59;60.54;100403.22;5024323;28;20022;-85
2024/04/23 02:11:55;;;;;;;9.35;7.18;;;;;;;5.55;60.39;100392.00;5023684;28;20011;-86
2024/04/23 02:14:21;;;;;;;10.48;7.88;;;;;;;5.54;60.43;100384.19;5023811;28;20019;-86
2024/04/23 02:16:51;;;;;;;10.27;7.78;;;;;;;5.53;60.79;100382.50;5050892;28;20022;-84
2024/04/23 02:19:17;;;;;;;13.07;7.93;;;;;;;5.49;60.67;100381.69;5050260;28;20038;-86
2024/04/23 02:21:44;;;;;;;10.25;7.38;;;;;;;5.48;60.84;100385.22;5023228;28;20058;-86
2024/04/23 02:24:11;;;;;;;10.57;7.45;;;;;;;5.45;60.61;100380.94;5050892;28;20593;-84
2024/04/23 02:26:37;;;;;;;10.82;8.13;;;;;;;5.41;60.69;100383.63;5051060;28;20016;-84
2024/04/23 02:29:04;;;;;;;12.75;8.48;;;;;;;5.35;60.92;100382.06;5023392;28;20015;-83
2024/04/23 02:31:30;;;;;;;9.15;7.68;;;;;;;5.28;60.75;100370.94;5023456;28;20024;-84
2024/04/23 02:33:57;;;;;;;13.15;9.18;;;;;;;5.25;60.88;100378.81;5023894;28;20003;-84
2024/04/23 02:36:24;;;;;;;12.68;9.70;;;;;;;5.22;61.27;100373.66;5050758;28;20028;-84
2024/04/23 02:38:50;;;;;;;13.65;10.48;;;;;;;5.21;61.24;100374.56;5050924;28;20479;-86
2024/04/23 02:41:17;;;;;;;13.48;9.80;;;;;;;5.19;61.51;100374.59;5050885;28;20022;-84
2024/04/23 02:43:43;;;;;;;13.73;10.15;;;;;;;5.18;61.65;100372.03;5023710;28;20022;-85
2024/04/23 02:46:10;;;;;;;13.00;9.70;;;;;;;5.18;61.58;100369.41;5051009;28;20015;-84
2024/04/23 02:48:37;;;;;;;12.77;9.10;;;;;;;5.15;61.46;100372.97;5023245;28;20336;-84
2024/04/23 02:51:05;;;;;;;12.45;9.40;;;;;;;5.14;61.89;100367.78;5050213;28;20016;-84
2024/04/23 02:53:31;;;;;;;12.80;9.80;;;;;;;5.13;61.66;100369.56;5023444;28;20048;-85
2024/04/23 02:55:58;;;;;;;13.00;9.02;;;;;;;5.14;61.62;100367.78;5050524;28;20025;-84
2024/04/23 02:58:25;;;;;;;12.38;9.23;;;;;;;5.14;61.39;100375.59;5050816;28;20080;-84
2024/04/23 03:00:51;;;;;;;11.48;9.38;;;;;;;5.12;61.65;100372.19;5023315;28;20093;-86
2024/04/23 03:03:18;;;;;;;11.82;9.32;;;;;;;5.13;61.69;100368.69;5050271;28;20564;-86
2024/04/23 03:05:45;;;;;;;11.85;9.18;;;;;;;5.13;61.35;100368.69;5023200;28;20015;-84
2024/04/23 03:08:11;;;;;;;12.93;9.88;;;;;;;5.12;61.68;100366.97;5050503;28;20022;-86
2024/04/23 03:10:38;;;;;;;11.90;9.60;;;;;;;5.11;61.58;100375.66;5050350;28;20039;-85
2024/04/23 03:13:04;;;;;;;14.23;9.75;;;;;;;5.07;61.76;100375.78;5049959;28;20402;-86
2024/04/23 03:15:31;;;;;;;12.30;9.15;;;;;;;5.06;61.65;100371.44;5022996;28;20015;-86
2024/04/23 03:17:58;;;;;;;13.00;10.30;;;;;;;5.05;62.07;100380.16;5023253;28;20432;-84
2024/04/23 03:20:25;;;;;;;13.50;10.43;;;;;;;5.06;61.73;100373.19;5022936;28;20012;-84
2024/04/23 03:22:51;;;;;;;13.13;10.23;;;;;;;5.06;61.79;100373.19;5023036;28;20026;-84
2024/04/23 03:25:18;;;;;;;12.10;9.38;;;;;;;5.04;61.88;100375.84;5022923;28;20052;-85
2024/04/23 03:27:45;;;;;;;13.95;10.73;;;;;;;5.05;61.93;100363.66;5050393;28;20007;-84
2024/04/23 03:30:11;;;;;;;13.77;10.27;;;;;;;5.04;61.79;100365.41;5022623;28;20039;-84
2024/04/23 03:32:38;;;;;;;12.57;9.93;;;;;;;5.04;61.95;100370.63;5024427;28;20336;-84
2024/04/23 03:35:05;;;;;;;14.15;10.10;;;;;;;5.02;61.87;100364.59;5052533;28;20011;-83
2024/04/23 03:37:31;;;;;;;16.13;10.95;;;;;;;5.02;62.00;100366.34;5053245;28;20012;-84
2024/04/23 03:39:58;;;;;;;17.50;10.60;;;;;;;5.00;61.85;100360.28;5025931;28;20475;-83
2024/04/23 03:42:25;;;;;;;14.13;10.63;;;;;;;4.99;61.65;100351.59;5052569;28;20068;-84
2024/04/23 03:44:51;;;;;;;13.98;9.93;;;;;;;4.99;62.20;100361.19;5051486;28;20059;-84
2024/04/23 03:47:18;;;;;;;13.88;10.68;;;;;;;4.98;62.13;100355.13;5052895;28;20011;-84
2024/04/23 03:49:44;;;;;;;14.25;9.55;;;;;;;4.97;61.89;100353.38;5051411;28;20011;-86
2024/04/23 03:52:12;;;;;;;13.73;10.18;;;;;;;4.96;61.99;100346.47;5052844;28;20007;-85
2024/04/23 03:54:40;;;;;;;13.32;10.07;;;;;;;4.95;61.92;100349.97;5052723;28;20096;-86
2024/04/23 03:57:07;;;;;;;14.50;10.40;;;;;;;4.95;62.41;100355.19;5052547;28;20055;-86
2024/04/23 03:59:33;;;;;;;11.90;9.98;;;;;;;4.94;62.25;100345.66;5025469;28;20088;-86
2024/04/23 04:07:31;;;;;;;16.10;9.98;;;;;;;4.90;61.84;100346.63;5053088;28;20084;-86
2024/04/23 04:09:57;;;;;;;13.63;9.30;;;;;;;4.88;62.03;100353.59;5052218;28;20011;-86
2024/04/23 04:12:24;;;;;;;13.55;9.93;;;;;;;4.86;62.36;100355.41;5025492;28;20011;-86
2024/04/23 04:14:50;;;;;;;14.13;10.45;;;;;;;4.83;61.89;100353.72;5052573;28;20088;-84
2024/04/23 04:17:17;;;;;;;14.13;9.88;;;;;;;4.79;62.25;100342.50;5051699;28;20007;-85
2024/04/23 04:19:49;;;;;;;14.18;10.23;;;;;;;4.80;62.35;100349.44;5051416;28;20015;-84
2024/04/23 04:22:37;;;;;;;16.40;10.38;;;;;;;4.80;62.52;100348.56;5052842;28;20026;-85
2024/04/23 04:25:05;;;;;;;15.02;10.77;;;;;;;4.79;62.27;100350.31;5022980;28;20035;-87
2024/04/23 04:27:32;;;;;;;20.80;12.25;;;;;;;4.78;62.53;100337.31;5050806;28;20479;-85
2024/04/23 04:29:59;;;;;;;15.98;11.65;;;;;;;4.76;62.38;100345.19;5022972;28;20486;-85
2024/04/23 04:32:25;;;;;;;15.73;12.10;;;;;;;4.76;62.81;100344.31;5050512;28;20011;-84
2024/04/23 04:34:52;;;;;;;16.40;11.00;;;;;;;4.73;62.51;100336.56;5023506;28;20020;-85
2024/04/23 04:37:19;;;;;;;14.32;11.45;;;;;;;4.74;62.87;100341.75;5050278;28;20482;-86
2024/04/23 04:39:46;;;;;;;16.40;12.32;;;;;;;4.73;62.51;100333.97;5050120;28;20022;-85
2024/04/23 04:42:12;;;;;;;17.27;10.88;;;;;;;4.73;62.48;100333.97;5049612;28;20038;-84
2024/04/23 04:44:39;;;;;;;15.18;10.95;;;;;;;4.72;62.80;100335.72;5049731;28;20007;-85
2024/04/23 04:47:06;;;;;;;18.17;11.93;;;;;;;4.71;62.63;100331.38;5023455;28;20031;-85
2024/04/23 04:49:37;;;;;;;15.38;11.35;;;;;;;4.69;62.75;100330.56;5052527;28;20011;-86
2024/04/23 04:52:04;;;;;;;18.92;12.88;;;;;;;4.67;62.78;100330.59;5025761;28;20026;-86
2024/04/23 04:54:33;;;;;;;19.13;12.35;;;;;;;4.67;62.92;100327.13;5024383;28;20007;-86
2024/04/23 04:56:59;;;;;;;18.42;13.00;;;;;;;4.67;63.22;100340.16;5024118;28;20018;-86
2024/04/23 04:59:26;;;;;;;14.98;11.88;;;;;;;4.65;63.32;100344.56;5024100;28;20523;-87
2024/04/23 05:01:53;;;;;;;16.13;12.07;;;;;;;4.67;63.39;100355.81;5051193;28;20344;-86
2024/04/23 05:04:20;;;;;;;18.95;12.63;;;;;;;4.66;63.30;100341.06;5025533;28;20007;-87
2024/04/23 05:06:47;;;;;;;18.63;12.68;;;;;;;4.67;63.50;100342.78;5025443;28;20483;-87
2024/04/23 05:09:13;;;;;;;18.58;13.07;;;;;;;4.68;63.53;100336.69;5025511;28;20088;-88
2024/04/23 05:11:43;;;;;;;16.60;12.52;;;;;;;4.69;63.49;100339.25;5025634;28;20007;-85
2024/04/23 05:14:10;;;;;;;16.63;12.43;;;;;;;4.73;63.81;100341.78;5025290;28;20011;-88
2024/04/23 05:16:39;;;;;;;17.85;12.25;;;;;;;4.76;63.92;100347.81;5025222;28;20088;-88
2024/04/23 05:19:06;;;;;;;17.17;13.05;;;;;;;4.79;64.09;100337.28;5025196;28;20026;-88
2024/04/23 05:21:33;;;;;;;17.08;12.18;;;;;;;4.82;64.20;100339.81;5052135;28;20092;-85
2024/04/23 05:23:59;;;;;;;16.33;12.20;;;;;;;4.86;63.83;100348.41;5024804;28;20019;-85
2024/04/23 06:08:31;;;;;;;14.35;9.98;;;;;;;5.39;64.87;100357.59;6507067;21;1312220;-87
2024/04/23 06:10:58;;;;;;;15.23;10.63;;;;;;;5.45;65.16;100361.78;6532534;22;20037;-87
2024/04/23 06:13:25;;;;;;;14.52;10.57;;;;;;;5.51;64.79;100364.25;6533221;22;20308;-87
2024/04/23 06:15:53;;;;;;;16.45;11.18;;;;;;;5.55;64.89;100359.78;6533419;22;20011;-87
2024/04/23 06:18:22;;;;;;;15.63;11.50;;;;;;;5.59;65.07;100367.53;6535309;22;20001;-87
2024/04/23 06:24:30;;;;;;;15.18;10.18;;;;;;;5.70;65.01;100367.22;6537387;22;20089;-87
2024/04/23 06:26:59;;;;;;;14.43;9.63;;;;;;;5.76;65.20;100363.59;6531318;22;20001;-86
2024/04/23 06:29:28;;;;;;;14.10;10.43;;;;;;;5.80;65.38;100370.44;6533493;21;19997;-87
2024/04/23 06:31:56;;;;;;;13.32;9.90;;;;;;;5.83;65.33;100370.34;6532789;21;20001;-87
2024/04/23 06:34:24;;;;;;;12.73;9.85;;;;;;;5.91;65.49;100367.53;6531189;22;20013;-87
2024/04/23 06:36:50;;;;;;;18.05;10.15;;;;;;;5.95;65.30;100365.69;6531393;22;20011;-87
2024/04/23 06:39:17;;;;;;;14.27;10.27;;;;;;;6.02;65.34;100363.78;6531249;22;19997;-86
2024/04/23 06:41:44;;;;;;;16.35;9.55;;;;;;;6.06;65.31;100349.75;6528796;22;20001;-86
2024/04/23 06:44:13;;;;;;;15.07;10.38;;;;;;;6.11;65.63;100353.94;6526140;21;20008;-86
2024/04/23 06:46:40;;;;;;;13.05;9.70;;;;;;;6.18;65.45;100354.63;6524421;22;20001;-86
2024/04/23 06:49:07;;;;;;;12.65;9.98;;;;;;;6.23;65.61;100360.56;6523730;22;20443;-86
2024/04/23 06:51:34;;;;;;;13.57;10.02;;;;;;;6.29;65.48;100351.69;6523514;22;20009;-87
2024/04/23 06:54:01;;;;;;;13.32;9.60;;;;;;;6.35;65.71;100356.72;6524379;22;20078;-87
2024/04/23 06:56:28;;;;;;;15.82;10.93;;;;;;;6.42;65.46;100356.56;6524352;22;19997;-86
2024/04/23 06:58:54;;;;;;;13.35;10.07;;;;;;;6.49;65.38;100352.84;6524111;22;20360;-87
2024/04/23 07:01:21;;;;;;;13.63;9.45;;;;;;;6.53;65.44;100354.47;6523075;22;20016;-86
2024/04/23 07:03:48;;;;;;;13.88;9.93;;;;;;;6.59;65.96;100343.81;6524157;22;20005;-86
2024/04/23 07:06:15;;;;;;;13.75;10.43;;;;;;;6.67;65.78;100343.59;6523721;22;20025;-86
2024/04/23 07:08:42;;;;;;;15.45;10.93;;;;;;;6.73;65.75;100335.53;6523331;22;20001;-86
2024/04/23 07:11:09;;;;;;;16.13;11.50;;;;;;;6.81;65.60;100326.59;6523166;22;20016;-86
2024/04/23 07:13:35;;;;;;;17.15;10.35;;;;;;;6.90;65.83;100334.13;6523487;22;20048;-87
2024/04/23 07:16:03;;;;;;;15.10;11.25;;;;;;;6.98;65.92;100332.13;6523811;22;20083;-86
2024/04/23 07:18:31;;;;;;;13.75;10.77;;;;;;;7.07;65.99;100328.38;6523362;22;19997;-86
2024/04/23 07:21:05;;;;;;;14.02;10.75;;;;;;;7.16;65.68;100333.28;6523523;22;20473;-86
2024/04/23 07:23:35;;;;;;;12.77;10.27;;;;;;;7.23;65.33;100325.22;6525639;21;20024;-86
2024/04/23 07:26:01;;;;;;;13.52;10.13;;;;;;;7.30;65.29;100319.72;6523556;22;20012;-87
2024/04/23 07:28:29;;;;;;;14.52;9.70;;;;;;;7.38;64.99;100322.09;6523112;22;20016;-87
2024/04/23 07:30:58;;;;;;;9.82;7.35;;;;;;;7.47;64.72;100325.28;6523503;22;19997;-86
2024/04/23 07:33:27;;;;;;;13.50;7.07;;;;;;;7.53;63.79;100325.06;6523234;22;20456;-86
2024/04/23 07:35:56;;;;;;;9.60;6.72;;;;;;;7.59;63.54;100324.84;6523468;22;20419;-87
2024/04/23 07:38:23;;;;;;;9.90;7.05;;;;;;;7.65;63.78;100316.78;6523403;22;19998;-87
2024/04/23 07:40:50;;;;;;;11.27;7.07;;;;;;;7.71;63.56;100306.97;6522845;22;20421;-87
2024/04/23 07:43:17;;;;;;;8.65;7.03;;;;;;;7.79;63.69;100304.94;6522709;22;20055;-86
2024/04/23 07:45:44;;;;;;;8.75;7.25;;;;;;;7.86;63.54;100306.44;6523209;22;20074;-86
2024/04/23 07:48:11;;;;;;;9.68;7.03;;;;;;;7.95;63.38;100300.84;6523058;22;20009;-86
2024/04/23 07:50:37;;;;;;;10.23;6.57;;;;;;;8.03;62.89;100302.31;6524777;21;20009;-86
2024/04/23 07:53:05;;;;;;;9.93;6.63;;;;;;;8.11;62.50;100294.16;6522492;22;20076;-86
2024/04/23 07:55:32;;;;;;;9.60;7.00;;;;;;;8.18;62.21;100295.63;6522380;22;20005;-86
2024/04/23 07:58:01;;;;;;;9.02;7.07;;;;;;;8.24;62.25;100294.53;6523125;22;20000;-86
2024/04/23 08:00:30;;;;;;;8.65;6.90;;;;;;;8.30;61.61;100300.41;6524883;21;20375;-86
2024/04/23 08:03:00;;;;;;;9.48;6.75;;;;;;;8.35;60.39;100292.38;6522531;22;20424;-86
2024/04/23 08:05:29;;;;;;;8.75;6.40;;;;;;;8.44;61.37;100291.13;6522715;22;20001;-87
2024/04/23 08:07:56;;;;;;;8.07;6.05;;;;;;;8.53;61.45;100290.81;6522640;22;20008;-86
2024/04/23 08:10:25;;;;;;;8.38;5.90;;;;;;;8.59;60.96;100290.56;6524589;21;20431;-86
2024/04/23 08:12:54;;;;;;;7.78;6.32;;;;;;;8.71;61.64;100291.84;6522915;22;20008;-86
2024/04/23 08:15:30;;;;;;;10.27;7.43;;;;;;;8.80;61.79;100289.75;6525255;21;20001;-87
2024/04/23 08:17:57;;;;;;;7.28;6.22;;;;;;;8.90;61.69;100285.81;6523080;22;20294;-86
2024/04/23 08:20:31;;;;;;;8.98;6.72;;;;;;;9.01;61.53;100281.91;6522527;22;19997;-86
2024/04/23 08:22:58;;;;;;;16.50;6.97;;;;;;;9.11;61.81;100284.09;6522371;22;19997;-86
2024/04/23 08:25:25;;;;;;;9.52;7.13;;;;;;;9.21;61.47;100284.56;6522521;22;20079;-86
2024/04/23 08:27:52;;;;;;;11.25;7.63;;;;;;;9.29;61.63;100278.09;6522699;22;20009;-87
2024/04/23 08:30:23;;;;;;;10.48;7.40;;;;;;;9.37;61.41;100281.25;6522546;22;20016;-87
2024/04/23 08:32:52;;;;;;;11.98;7.68;;;;;;;9.44;61.41;100276.56;6522197;22;20037;-87
2024/04/23 08:35:20;;;;;;;10.95;7.68;;;;;;;9.51;61.52;100278.88;6522546;22;20012;-86
2024/04/23 08:37:47;;;;;;;9.48;7.22;;;;;;;9.59;61.16;100280.31;6522965;22;20005;-87
2024/04/23 08:40:20;;;;;;;10.55;8.07;;;;;;;9.65;61.29;100277.41;6522524;22;19997;-86
2024/04/23 08:42:51;;;;;;;10.93;7.95;;;;;;;9.71;60.65;100277.13;6521967;22;19997;-86
2024/04/23 08:45:22;;;;;;;9.00;7.45;;;;;;;9.80;60.06;100270.63;6522533;22;20499;-86
2024/04/23 08:47:55;;;;;;;10.45;7.28;;;;;;;9.87;60.02;100265.94;6522577;22;20021;-87
2024/04/23 08:50:30;;;;;;;9.30;7.53;;;;;;;9.94;59.26;100264.69;6522216;22;20001;-87
2024/04/23 08:53:01;;;;;;;10.20;7.63;;;;;;;10.01;60.01;100263.50;6524099;21;20697;-87
2024/04/23 08:55:32;;;;;;;10.32;7.57;;;;;;;10.08;60.29;100265.84;6522754;22;20001;-87
2024/04/23 08:58:07;;;;;;;10.15;7.40;;;;;;;10.12;59.53;100256.88;6524299;21;20001;-87
2024/04/23 09:00:42;;;;;;;8.75;6.85;;;;;;;10.16;58.21;100259.31;6522640;22;20008;-87
2024/04/23 09:03:30;;;;;;;8.38;6.60;;;;;;;10.23;58.71;100261.63;6522266;22;20001;-87
2024/04/23 09:06:01;;;;;;;8.20;6.45;;;;;;;10.27;58.32;100261.41;6522525;22;20000;-87
2024/04/23 09:08:35;;;;;;;10.73;7.70;;;;;;;10.32;57.32;100258.56;6522165;22;20025;-87
2024/04/23 09:11:06;;;;;;;9.93;7.55;;;;;;;10.35;59.05;100247.06;6522443;22;20005;-87
2024/04/23 09:14:08;;;;;;;14.63;7.47;;;;;;;10.34;57.29;100251.44;6522444;22;20005;-87
2024/04/23 09:17:04;;;;;;;11.43;7.45;;;;;;;10.37;57.23;100245.19;6522614;22;20001;-87
2024/04/23 09:20:07;;;;;;;8.55;7.63;;;;;;;10.43;57.98;100243.09;6522007;22;20075;-87
2024/04/23 09:22:32;;;;;;;12.13;7.38;;;;;;;10.47;58.16;100246.47;6515259;21;20001;-87
2024/04/23 09:25:05;;;;;;;8.10;6.88;;;;;;;10.47;57.60;100238.56;6522082;22;20008;-87
2024/04/23 09:27:51;;;;;;;9.23;6.22;;;;;;;10.48;57.37;100231.53;6516206;22;20001;-87
2024/04/23 09:30:31;;;;;;;9.07;7.22;;;;;;;10.48;57.55;100228.91;6522107;22;19997;-87
2024/04/23 09:33:06;;;;;;;7.55;6.75;;;;;;;10.51;57.86;100226.97;6521766;22;20072;-87
2024/04/23 09:35:42;;;;;;;8.40;6.63;;;;;;;10.61;58.13;100224.72;6524047;21;19997;-86
2024/04/23 09:38:14;;;;;;;9.77;7.88;;;;;;;10.75;59.57;100223.19;6522619;22;19997;-86
2024/04/23 09:40:42;;;;;;;9.80;7.18;;;;;;;10.91;60.22;100216.22;6524151;22;20029;-86
2024/04/23 09:43:14;;;;;;;8.95;7.07;;;;;;;11.10;57.97;100214.44;6521731;22;20020;-86
2024/04/23 09:46:03;;;;;;;8.93;7.07;;;;;;;11.28;55.45;100216.09;6524599;21;20075;-86
2024/04/23 09:48:56;;;;;;;;;;;;;;;;;;;;;
2024/04/23 09:51:46;;;;;;;10.77;6.22;;;;;;;11.54;53.97;100215.63;6523519;21;20005;-86
2024/04/23 09:54:40;;;;;;;8.02;6.07;;;;;;;11.56;54.15;100214.63;6522687;22;20016;-87
2024/04/23 09:57:56;;;;;;;9.38;6.43;;;;;;;11.51;52.76;100208.75;6522059;22;20009;-87
2024/04/23 10:00:55;;;;;;;7.85;5.80;;;;;;;11.51;54.47;100206.09;6493968;22;19997;-87
2024/04/23 10:04:07;;;;;;;6.70;5.93;;;;;;;11.44;53.43;100199.47;6522325;22;20012;-87
2024/04/23 10:07:19;;;;;;;8.65;6.55;;;;;;;11.39;53.57;100190.94;6513936;22;20435;-86
2024/04/23 10:10:26;;;;;;;10.38;6.30;;;;;;;11.40;53.97;100182.13;6489689;22;20001;-87
2024/04/23 10:12:59;;;;;;;8.48;6.45;;;;;;;11.46;55.47;100168.59;6524080;21;20003;-86
2024/04/23 10:15:35;;;;;;;;;;;;;;;11.53;54.92;100177.88;6525048;21;19997;-87
2024/04/23 10:18:20;;;;;;;8.52;5.90;;;;;;;11.69;55.73;100174.41;6523465;22;19950;-87
2024/04/23 10:21:05;;;;;;;;;;;;;;;;;;;;;
2024/04/23 10:24:04;;;;;;;;;;;;;;;;;;;;;
2024/04/23 10:26:51;;;;;;;7.70;5.80;;;;;;;12.15;55.33;100167.53;6526115;21;20012;-87
2024/04/23 10:29:35;;;;;;;6.13;5.53;;;;;;;12.35;54.43;100159.31;6524091;22;20013;-87
2024/04/23 10:32:26;;;;;;;7.10;5.72;;;;;;;12.63;55.09;100152.41;6523338;22;20021;-86
2024/04/23 10:35:24;;;;;;;6.00;5.22;;;;;;;12.92;56.38;100154.25;6469510;22;20008;-87
2024/04/23 10:38:51;;;;;;;;;;;;;;;;;;;;;
2024/04/23 10:42:27;;;;;;;;;;;;;;;;;;;;;
2024/04/23 10:45:20;;;;;;;7.22;5.22;;;;;;;13.43;53.29;100139.69;6525646;22;20008;-87
2024/04/23 10:53:03;;;;;;;;;;;;;;;;;;;;;
2024/04/23 11:08:38;;;;;;;;;;;;;;;;;;;;;
2024/04/23 11:12:31;;;;;;;;;;;;;;;;;;;;;
2024/04/23 11:31:39;;;;;;;7.07;5.78;;;;;;;16.48;43.80;100096.75;6517194;21;20004;-92
2024/04/23 11:34:53;;;;;;;9.27;5.43;;;;;;;15.93;44.64;100086.66;6525673;22;20013;-92
2024/04/23 11:37:43;;;;;;;6.32;5.72;;;;;;;15.53;44.69;100078.97;6483913;22;20408;-92
2024/04/23 11:40:34;;;;;;;7.93;5.40;;;;;;;15.09;45.04;100077.59;6488207;22;19997;-92
2024/04/23 11:43:04;;;;;;;6.10;5.45;;;;;;;14.75;45.58;100072.00;6480499;22;20001;-91
2024/04/23 11:45:36;;;;;;;5.70;5.10;;;;;;;14.47;45.78;100068.63;6523561;22;19997;-92
2024/04/23 11:48:11;;;;;;;7.95;5.78;;;;;;;14.27;47.33;100073.47;6483009;22;20005;-92
2024/04/23 11:50:48;;;;;;;7.97;5.13;;;;;;;14.10;46.57;100073.75;6482201;22;20000;-92
2024/04/23 11:53:33;;;;;;;6.25;5.18;;;;;;;13.97;46.51;100068.44;6479759;22;20028;-92
2024/04/23 11:56:12;;;;;;;6.07;5.32;;;;;;;13.89;47.01;100058.34;6481494;22;20012;-92
2024/04/23 12:01:36;;;;;;;5.70;5.05;;;;;;;14.06;48.47;100049.28;6507518;21;20005;-90
2024/04/23 12:05:28;;;;;;;;;;;;;;;;;;;;;
2024/04/23 12:07:59;;;;;;;5.93;4.82;;;;;;;15.09;47.52;100042.28;6401250;22;20001;-90
2024/04/23 12:10:27;;;;;;;7.60;4.95;;;;;;;15.41;48.75;100040.91;6527766;21;20011;-89
2024/04/23 12:12:53;;;;;;;6.13;5.07;;;;;;;15.56;48.18;100038.94;6482685;22;20005;-90
2024/04/23 12:15:21;;;;;;;6.18;5.53;;;;;;;15.60;47.57;100037.75;6483156;22;20067;-89
2024/04/23 12:17:48;;;;;;;6.85;5.50;;;;;;;15.54;46.54;100044.38;6482765;22;20005;-89
2024/04/23 12:20:15;;;;;;;7.55;4.88;;;;;;;15.43;46.05;100036.34;6483014;22;20447;-89
2024/04/23 12:22:44;;;;;;;5.38;4.85;;;;;;;15.27;45.50;100041.91;6482504;22;20106;-90
2024/04/23 12:25:14;;;;;;;5.90;5.07;;;;;;;15.06;45.14;100040.69;6525267;22;20001;-89
2024/04/23 12:27:46;;;;;;;6.95;5.10;;;;;;;14.89;45.48;100035.75;6482923;22;20001;-89
2024/04/23 12:30:14;;;;;;;7.18;5.40;;;;;;;14.69;45.83;100035.34;6482904;22;19997;-90
2024/04/23 12:32:49;;;;;;;6.00;5.07;;;;;;;14.55;46.13;100042.41;6484054;22;20810;-89
2024/04/23 12:35:19;;;;;;;8.82;5.55;;;;;;;14.38;45.50;100030.34;6527947;22;20044;-89
2024/04/23 12:37:47;;;;;;;6.68;5.18;;;;;;;14.28;46.80;100026.66;6482997;22;20002;-90
2024/04/23 12:40:16;;;;;;;8.98;5.85;;;;;;;14.19;46.61;100025.47;6482070;22;20075;-88
2024/04/23 12:42:43;;;;;;;6.35;5.72;;;;;;;14.14;46.53;100022.28;6482262;22;20005;-89
2024/04/23 12:45:16;;;;;;;6.95;5.63;;;;;;;14.10;47.05;100019.00;6527182;22;19997;-89
2024/04/23 12:47:42;;;;;;;6.20;5.15;;;;;;;14.08;46.91;100012.97;6482747;22;19997;-90
2024/04/23 12:50:12;;;;;;;10.35;5.85;;;;;;;14.10;47.52;100011.06;6483032;22;20005;-89
2024/04/23 12:52:39;;;;;;;6.47;5.63;;;;;;;14.13;47.42;100002.06;6483092;22;20040;-89
2024/04/23 12:55:06;;;;;;;6.80;6.05;;;;;;;14.20;47.46;100000.69;6527677;22;20059;-90
2024/04/23 12:57:33;;;;;;;7.70;6.10;;;;;;;14.27;47.57;100003.75;6482870;22;20072;-89
2024/04/23 13:00:00;;;;;;;8.45;6.25;;;;;;;14.33;47.52;99984.81;6482797;22;20001;-89
2024/04/23 13:02:27;;;;;;;8.23;5.65;;;;;;;14.38;47.29;100000.38;6527136;22;19997;-89
2024/04/23 13:04:54;;;;;;;7.78;6.05;;;;;;;14.41;47.82;99987.78;6482734;22;20001;-89
2024/04/23 13:07:21;;;;;;;6.22;5.55;;;;;;;14.49;47.76;99983.72;6482670;22;20005;-89
2024/04/23 13:09:47;;;;;;;7.70;6.22;;;;;;;14.65;49.22;99975.56;6524547;21;20053;-89
2024/04/23 13:12:14;;;;;;;7.70;6.00;;;;;;;14.91;49.25;99976.38;6523559;22;20001;-89
2024/04/23 13:14:41;;;;;;;6.60;5.65;;;;;;;15.24;49.18;99974.91;6480442;22;20016;-89
2024/04/23 13:17:08;;;;;;;6.60;5.93;;;;;;;15.59;49.24;99972.41;6480352;22;20008;-90
2024/04/23 13:19:34;;;;;;;7.18;6.00;;;;;;;16.00;49.69;99965.78;6480373;22;20421;-90
2024/04/23 13:22:01;;;;;;;6.25;5.63;;;;;;;16.47;48.26;99956.03;6480275;22;20021;-90
2024/04/23 13:24:33;;;;;;;7.93;5.78;;;;;;;16.92;48.47;99944.50;6481656;22;20020;-90
2024/04/23 13:27:00;;;;;;;6.65;5.60;;;;;;;17.32;46.36;99937.78;6524974;22;20075;-90